Time;durP1;ratioP1;P1;durP2;ratioP2;P2;SDS_P1;SDS_P2;PMS_P1;PMS_P2;Temp;Humidity;BMP_temperature;BMP_pressure;BME280_temperature;BME280_humidity;BME280_pressure;Samples;Min_cycle;Max_cycle;Signal;HPM_P1;HPM_P2
2023/01/20 00:00:54;;;;;;;19.02;12.80;;;3.40;1.00;;;;;;4998795;28;20249;-92
2023/01/20 00:04:13;;;;;;;;;;;;;;;;;;;;;
2023/01/20 00:06:55;;;;;;;19.67;13.27;;;3.50;1.00;;;;;;4959644;28;50431;-91
2023/01/20 00:09:31;;;;;;;21.42;12.50;;;3.50;1.00;;;;;;5065616;28;20233;-92
2023/01/20 00:16:12;;;;;;;20.55;12.13;;;3.50;1.00;;;;;;5013998;28;20272;-92
2023/01/20 00:18:50;;;;;;;23.10;12.77;;;3.30;1.00;;;;;;4984586;28;20208;-92
2023/01/20 00:21:39;;;;;;;20.58;12.55;;;3.40;1.00;;;;;;5027121;28;20297;-91
2023/01/20 00:24:30;;;;;;;23.77;14.25;;;3.40;1.00;;;;;;4996804;28;20286;-92
2023/01/20 00:27:33;;;;;;;22.75;13.63;;;3.50;1.00;;;;;;5016004;28;20225;-92
2023/01/20 00:53:10;;;;;;;21.98;12.30;;;3.20;1.00;;;;;;5031081;28;20222;-90
2023/01/20 00:55:37;;;;;;;24.25;11.95;;;3.10;1.00;;;;;;5094591;22;20247;-84
2023/01/20 00:58:06;;;;;;;22.30;11.85;;;3.00;1.00;;;;;;5060703;28;21718;-83
2023/01/20 01:00:35;;;;;;;20.67;12.05;;;2.90;1.00;;;;;;5072147;27;20233;-82
2023/01/20 01:03:04;;;;;;;21.10;12.13;;;2.90;1.00;;;;;;5072527;28;20246;-84
2023/01/20 01:05:32;;;;;;;22.40;13.70;;;2.80;1.00;;;;;;5074278;28;20324;-82
2023/01/20 01:07:59;;;;;;;24.85;12.82;;;2.80;1.00;;;;;;5074683;28;20224;-83
2023/01/20 01:10:27;;;;;;;21.45;12.25;;;2.80;1.00;;;;;;5070766;28;20292;-83
2023/01/20 01:12:54;;;;;;;28.10;12.38;;;2.80;1.00;;;;;;5056831;28;20237;-82
2023/01/20 01:15:21;;;;;;;18.45;12.10;;;2.70;1.00;;;;;;5061894;28;21112;-82
2023/01/20 01:17:51;;;;;;;19.23;11.65;;;2.70;1.00;;;;;;5052249;28;20241;-83
2023/01/20 01:20:20;;;;;;;24.85;11.43;;;2.70;1.00;;;;;;5052749;28;20245;-84
2023/01/20 01:23:03;;;;;;;21.20;11.32;;;2.70;1.00;;;;;;5057920;28;20272;-84
2023/01/20 01:25:32;;;;;;;21.92;11.45;;;2.70;1.00;;;;;;5076475;28;20236;-84
2023/01/20 01:28:00;;;;;;;24.10;12.82;;;2.70;1.00;;;;;;5067604;28;20625;-86
2023/01/20 01:30:32;;;;;;;21.33;11.55;;;2.70;1.00;;;;;;5067696;28;20252;-83
2023/01/20 01:33:00;;;;;;;24.73;13.80;;;2.70;1.00;;;;;;5075849;27;20232;-82
2023/01/20 01:35:34;;;;;;;23.00;12.07;;;2.70;1.00;;;;;;5084437;28;20236;-83
2023/01/20 01:38:10;;;;;;;18.73;11.52;;;2.70;1.00;;;;;;5069644;28;20236;-84
2023/01/20 01:40:50;;;;;;;24.35;11.95;;;2.80;1.00;;;;;;5073020;28;21090;-83
2023/01/20 01:43:23;;;;;;;21.27;11.20;;;2.80;1.00;;;;;;5080682;28;20225;-83
2023/01/20 01:45:52;;;;;;;21.50;11.68;;;2.80;1.00;;;;;;5072982;28;20315;-83
2023/01/20 01:48:26;;;;;;;19.20;10.18;;;2.70;1.00;;;;;;5078569;28;20249;-83
2023/01/20 01:50:57;;;;;;;20.27;11.68;;;2.70;1.00;;;;;;5077137;28;20306;-85
2023/01/20 01:53:29;;;;;;;20.58;10.80;;;2.60;1.00;;;;;;5077725;28;20244;-82
2023/01/20 01:56:01;;;;;;;18.70;11.18;;;2.60;1.00;;;;;;5070838;28;20409;-82
2023/01/20 01:58:34;;;;;;;23.45;12.15;;;2.60;1.00;;;;;;5074620;28;20233;-83
2023/01/20 02:01:02;;;;;;;20.70;11.85;;;2.60;1.00;;;;;;5074241;28;20324;-83
2023/01/20 02:03:35;;;;;;;22.95;11.98;;;2.60;1.00;;;;;;5067559;28;20237;-82
2023/01/20 02:06:10;;;;;;;17.98;11.00;;;2.70;1.00;;;;;;5079036;28;20248;-82
2023/01/20 02:08:39;;;;;;;18.67;10.70;;;2.60;1.00;;;;;;5072418;28;20240;-82
2023/01/20 02:11:11;;;;;;;26.75;12.80;;;2.70;1.00;;;;;;5060755;28;20264;-82
2023/01/20 02:13:44;;;;;;;21.02;12.48;;;2.70;1.00;;;;;;5065072;28;20216;-82
2023/01/20 02:16:23;;;;;;;21.05;11.90;;;2.70;1.00;;;;;;5073383;28;20236;-82
2023/01/20 02:22:14;;;;;;;25.25;11.82;;;2.70;1.00;;;;;;5055168;28;20296;-83
2023/01/20 02:25:12;;;;;;;20.08;11.85;;;2.70;1.00;;;;;;5061178;28;20349;-81
2023/01/20 02:28:12;;;;;;;21.50;11.68;;;2.70;1.00;;;;;;5054060;28;20236;-82
2023/01/20 02:31:21;;;;;;;20.85;11.00;;;2.70;1.00;;;;;;5037819;28;20241;-82
2023/01/20 02:34:02;;;;;;;22.23;12.00;;;2.80;1.00;;;;;;5060457;28;20240;-84
2023/01/20 02:36:42;;;;;;;19.50;11.07;;;2.80;1.00;;;;;;5068948;28;20241;-83
2023/01/20 02:39:15;;;;;;;20.35;11.00;;;2.90;1.00;;;;;;5073807;27;20323;-82
2023/01/20 02:41:52;;;;;;;19.90;10.43;;;2.90;1.00;;;;;;5079919;28;20224;-82
2023/01/20 02:44:33;;;;;;;21.33;9.98;;;2.90;1.00;;;;;;5079078;28;21271;-82
2023/01/20 02:47:12;;;;;;;20.50;11.52;;;3.00;1.00;;;;;;5083274;28;20228;-85
2023/01/20 02:49:54;;;;;;;23.17;12.05;;;3.00;1.00;;;;;;5069160;28;20289;-83
2023/01/20 02:52:27;;;;;;;22.20;11.98;;;3.10;1.00;;;;;;5078191;28;20288;-80
2023/01/20 02:55:03;;;;;;;22.25;11.60;;;3.10;1.00;;;;;;5085156;28;20295;-84
2023/01/20 02:57:35;;;;;;;22.27;11.35;;;3.20;1.00;;;;;;5083114;28;20228;-85
2023/01/20 03:00:09;;;;;;;20.75;12.07;;;3.20;1.00;;;;;;5082663;28;20220;-79
2023/01/20 03:02:43;;;;;;;22.63;13.50;;;3.10;1.00;;;;;;5076676;28;20243;-83
2023/01/20 03:05:22;;;;;;;24.90;12.82;;;3.00;1.00;;;;;;5087756;28;20262;-85
2023/01/20 03:07:52;;;;;;;18.88;12.15;;;2.90;1.00;;;;;;5070907;28;21035;-82
2023/01/20 03:10:30;;;;;;;21.35;11.98;;;2.90;1.00;;;;;;5077050;28;20240;-84
2023/01/20 03:13:06;;;;;;;19.75;12.05;;;2.90;1.00;;;;;;5084595;28;20245;-86
2023/01/20 03:15:42;;;;;;;21.35;13.18;;;2.80;1.00;;;;;;5079632;28;20327;-81
2023/01/20 03:18:13;;;;;;;20.05;12.65;;;2.80;1.00;;;;;;5087619;28;20216;-82
2023/01/20 03:20:52;;;;;;;24.40;12.65;;;2.90;1.00;;;;;;5084299;27;20232;-80
2023/01/20 03:23:24;;;;;;;22.20;12.52;;;2.80;1.00;;;;;;5083685;28;20244;-81
2023/01/20 03:25:51;;;;;;;21.83;13.32;;;2.80;1.00;;;;;;5080423;28;21256;-82
2023/01/20 03:28:24;;;;;;;21.55;13.70;;;2.80;1.00;;;;;;5077904;27;20226;-84
2023/01/20 03:30:56;;;;;;;27.45;13.90;;;2.90;1.00;;;;;;5070122;28;20210;-83
2023/01/20 03:33:24;;;;;;;20.67;12.73;;;2.90;1.00;;;;;;5065106;28;20220;-81
2023/01/20 03:35:54;;;;;;;20.52;12.35;;;2.90;1.00;;;;;;5083017;27;20232;-84
2023/01/20 03:38:23;;;;;;;18.73;11.77;;;3.00;1.00;;;;;;5081857;28;20278;-85
2023/01/20 03:41:08;;;;;;;25.88;12.38;;;3.00;1.00;;;;;;5081508;27;20248;-84
2023/01/20 03:43:44;;;;;;;22.45;12.90;;;3.00;1.00;;;;;;5088231;28;20228;-84
2023/01/20 03:46:24;;;;;;;23.25;12.50;;;3.00;1.00;;;;;;5091257;28;20236;-84
2023/01/20 03:49:07;;;;;;;18.50;12.20;;;2.90;1.00;;;;;;5080436;28;20224;-83
2023/01/20 03:51:47;;;;;;;23.20;13.15;;;2.80;1.00;;;;;;5081802;28;20371;-84
2023/01/20 03:54:24;;;;;;;20.23;11.45;;;2.80;1.00;;;;;;5078534;27;20716;-80
2023/01/20 03:56:55;;;;;;;19.50;12.15;;;2.90;1.00;;;;;;5078661;28;20239;-85
2023/01/20 03:59:25;;;;;;;22.63;13.43;;;2.80;1.00;;;;;;5084558;27;20294;-81
2023/01/20 04:01:54;;;;;;;22.52;11.93;;;2.90;1.00;;;;;;5074444;28;20283;-84
2023/01/20 04:04:32;;;;;;;22.92;13.52;;;2.90;1.00;;;;;;5082904;28;20300;-81
2023/01/20 04:07:12;;;;;;;23.63;13.25;;;2.80;1.00;;;;;;5080095;28;20215;-82
2023/01/20 04:09:45;;;;;;;24.27;13.73;;;2.80;1.00;;;;;;5077577;28;20220;-82
2023/01/20 04:12:16;;;;;;;22.55;13.25;;;2.70;1.00;;;;;;5080117;28;20242;-83
2023/01/20 04:14:43;;;;;;;22.00;14.05;;;2.70;1.00;;;;;;5088204;27;20228;-83
2023/01/20 04:17:11;;;;;;;23.95;14.05;;;2.70;1.00;;;;;;5078188;28;21026;-85
2023/01/20 04:19:43;;;;;;;26.13;14.88;;;2.70;1.00;;;;;;5086934;28;21021;-84
2023/01/20 04:22:16;;;;;;;24.75;14.73;;;2.70;1.00;;;;;;5081947;28;20662;-82
2023/01/20 04:24:49;;;;;;;23.30;14.90;;;2.80;1.00;;;;;;5082309;28;20268;-83
2023/01/20 04:27:16;;;;;;;23.15;15.05;;;2.80;1.00;;;;;;5076179;28;20245;-83
2023/01/20 04:29:43;;;;;;;26.90;15.02;;;2.70;1.00;;;;;;5083942;28;20213;-83
2023/01/20 04:32:12;;;;;;;22.85;14.27;;;2.70;1.00;;;;;;5073449;28;20257;-82
2023/01/20 04:34:44;;;;;;;24.52;13.88;;;2.70;1.00;;;;;;5081339;28;20216;-82
2023/01/20 04:37:12;;;;;;;25.10;14.95;;;2.70;1.00;;;;;;5092433;28;21099;-86
2023/01/20 04:39:44;;;;;;;27.45;15.90;;;2.70;1.00;;;;;;5058898;28;20225;-85
2023/01/20 04:42:12;;;;;;;24.80;15.73;;;2.80;1.00;;;;;;5062359;28;20241;-85
2023/01/20 04:44:46;;;;;;;27.23;15.48;;;2.80;1.00;;;;;;5078375;28;20220;-85
2023/01/20 04:47:15;;;;;;;25.48;16.38;;;2.70;1.00;;;;;;5091822;28;20259;-84
2023/01/20 04:49:45;;;;;;;26.38;15.23;;;2.70;1.00;;;;;;5086259;28;20217;-78
2023/01/20 04:52:13;;;;;;;25.85;16.13;;;2.70;1.00;;;;;;5079749;28;20312;-82
2023/01/20 04:54:48;;;;;;;25.77;15.23;;;2.70;1.00;;;;;;5080805;27;20232;-82
2023/01/20 04:57:15;;;;;;;27.50;16.80;;;2.60;1.00;;;;;;5077117;27;20233;-83
2023/01/20 04:59:44;;;;;;;27.58;16.95;;;2.60;1.00;;;;;;5085097;28;20231;-82
2023/01/20 05:02:13;;;;;;;23.95;17.35;;;2.60;1.00;;;;;;5083805;28;20241;-84
2023/01/20 05:05:07;;;;;;;29.02;16.67;;;2.70;1.00;;;;;;5076643;28;20232;-84
2023/01/20 05:07:43;;;;;;;28.63;17.42;;;2.70;1.00;;;;;;5075771;28;20241;-80
2023/01/20 05:10:46;;;;;;;;;;;;;;;;;;;;;
2023/01/20 05:13:16;;;;;;;32.55;17.42;;;2.60;1.00;;;;;;5079405;28;50809;-82
2023/01/20 05:15:44;;;;;;;26.30;17.73;;;2.60;1.00;;;;;;5070892;27;20251;-84
2023/01/20 05:18:13;;;;;;;28.70;18.40;;;2.50;1.00;;;;;;5085897;28;20252;-81
2023/01/20 05:21:06;;;;;;;30.52;18.23;;;2.50;1.00;;;;;;5051260;28;20226;-81
2023/01/20 05:26:46;;;;;;;32.65;18.17;;;2.50;1.00;;;;;;5077818;27;20235;-82
2023/01/20 05:29:26;;;;;;;29.60;18.65;;;2.50;1.00;;;;;;5059388;28;20228;-82
2023/01/20 05:37:55;;;;;;;29.10;18.60;;;2.60;1.00;;;;;;5048592;28;20226;-82
2023/01/20 05:40:55;;;;;;;35.90;20.02;;;2.50;1.00;;;;;;5042998;28;21019;-84
2023/01/20 05:43:41;;;;;;;30.75;18.52;;;2.60;1.00;;;;;;5011076;28;20263;-82
2023/01/20 05:46:16;;;;;;;30.52;19.02;;;2.70;1.00;;;;;;5045934;28;20233;-83
2023/01/20 05:48:47;;;;;;;32.42;18.90;;;2.70;1.00;;;;;;5030677;28;21054;-83
2023/01/20 05:51:14;;;;;;;33.63;20.48;;;2.70;1.00;;;;;;5032888;28;20854;-82
2023/01/20 05:54:06;;;;;;;36.65;20.20;;;2.70;1.00;;;;;;5043309;28;20227;-84
2023/01/20 05:56:54;;;;;;;29.60;19.10;;;2.70;1.00;;;;;;5025796;28;20280;-84
2023/01/20 05:59:33;;;;;;;32.63;19.70;;;2.80;1.00;;;;;;5044934;28;20250;-84
2023/01/20 06:02:08;;;;;;;30.60;20.48;;;2.80;1.00;;;;;;5043752;28;20226;-84
2023/01/20 06:04:44;;;;;;;33.72;20.75;;;2.80;1.00;;;;;;5036613;28;20242;-83
2023/01/20 06:07:24;;;;;;;32.03;21.02;;;2.80;1.00;;;;;;5035022;28;20480;-83
2023/01/20 06:10:13;;;;;;;32.10;20.83;;;2.70;1.00;;;;;;5038975;28;20240;-87
2023/01/20 06:12:55;;;;;;;34.65;20.48;;;2.70;1.00;;;;;;5039144;28;22140;-87
2023/01/20 06:15:28;;;;;;;34.90;21.65;;;2.70;1.00;;;;;;5040652;28;20928;-84
2023/01/20 06:18:03;;;;;;;32.47;19.88;;;2.70;1.00;;;;;;5011390;28;20296;-84
2023/01/20 06:20:45;;;;;;;34.05;20.23;;;2.60;1.00;;;;;;5042650;28;20241;-83
2023/01/20 06:23:25;;;;;;;35.08;20.50;;;2.50;1.00;;;;;;5046744;28;20264;-83
2023/01/20 06:26:05;;;;;;;35.33;20.40;;;2.50;1.00;;;;;;5045867;28;20248;-84
2023/01/20 06:28:36;;;;;;;33.65;20.38;;;2.50;1.00;;;;;;5044071;28;20238;-83
2023/01/20 06:31:27;;;;;;;33.63;21.75;;;2.40;1.00;;;;;;5026644;28;20274;-85
2023/01/20 06:34:04;;;;;;;35.63;20.25;;;2.40;1.00;;;;;;5013708;28;20245;-83
2023/01/20 06:36:57;;;;;;;36.72;20.33;;;2.30;1.00;;;;;;5023398;28;20222;-83
2023/01/20 06:39:36;;;;;;;38.95;22.63;;;2.30;1.00;;;;;;5012615;28;20239;-83
2023/01/20 06:42:15;;;;;;;37.25;21.85;;;2.20;1.00;;;;;;5045931;28;20242;-83
2023/01/20 06:48:05;;;;;;;38.90;22.02;;;2.20;1.00;;;;;;5031284;28;20244;-84
2023/01/20 06:50:37;;;;;;;39.55;22.02;;;2.30;1.00;;;;;;5043298;28;20325;-83
2023/01/20 06:53:26;;;;;;;;;;;;;;;;;;;;;
2023/01/20 06:56:03;;;;;;;31.58;20.90;;;2.20;1.00;;;;;;5049942;28;50737;-82
2023/01/20 06:58:48;;;;;;;31.15;20.50;;;2.20;1.00;;;;;;5044234;28;21074;-84
2023/01/20 07:01:37;;;;;;;33.22;20.08;;;2.10;1.00;;;;;;5044081;28;20221;-84
2023/01/20 07:04:13;;;;;;;37.30;21.60;;;2.10;1.00;;;;;;5034779;28;20228;-82
2023/01/20 07:10:24;;;;;;;31.75;20.73;;;2.10;1.00;;;;;;4995847;28;20285;-83
2023/01/20 07:13:44;;;;;;;30.35;20.48;;;2.20;1.00;;;;;;5024670;28;20253;-84
2023/01/20 07:16:38;;;;;;;34.15;20.80;;;2.20;1.00;;;;;;5007527;28;20249;-81
2023/01/20 07:19:17;;;;;;;32.97;20.83;;;2.20;1.00;;;;;;5029209;28;20244;-90
2023/01/20 07:21:45;;;;;;;32.05;19.40;;;2.20;1.00;;;;;;5040366;28;21126;-82
2023/01/20 07:24:16;;;;;;;32.13;20.75;;;2.30;1.00;;;;;;5035010;28;20250;-81
2023/01/20 07:26:46;;;;;;;36.03;20.98;;;2.20;1.00;;;;;;5039499;28;21167;-81
2023/01/20 07:29:19;;;;;;;35.03;20.42;;;2.20;1.00;;;;;;5037116;28;20237;-81
2023/01/20 07:31:47;;;;;;;34.75;20.42;;;2.20;1.00;;;;;;5035988;28;21788;-82
2023/01/20 07:34:15;;;;;;;33.17;20.35;;;2.20;1.00;;;;;;5037470;28;20354;-81
2023/01/20 07:36:55;;;;;;;36.65;20.70;;;2.20;1.00;;;;;;5035129;28;20241;-83
2023/01/20 07:39:25;;;;;;;33.55;20.70;;;2.00;1.00;;;;;;5038267;28;21094;-81
2023/01/20 07:41:55;;;;;;;33.70;20.80;;;2.10;1.00;;;;;;5025736;28;20245;-82
2023/01/20 07:44:25;;;;;;;33.65;19.52;;;2.10;1.00;;;;;;5034215;28;20345;-80
2023/01/20 07:46:54;;;;;;;32.28;19.35;;;2.10;1.00;;;;;;5033454;28;20268;-80
2023/01/20 07:49:44;;;;;;;35.28;21.73;;;2.00;1.00;;;;;;5033321;28;20242;-80
2023/01/20 07:52:11;;;;;;;33.90;20.83;;;2.10;1.00;;;;;;5028609;28;20841;-79
2023/01/20 07:54:53;;;;;;;37.78;21.15;;;2.00;1.00;;;;;;5037566;28;20261;-81
2023/01/20 07:57:34;;;;;;;40.78;22.17;;;2.00;1.00;;;;;;5038430;28;20233;-82
2023/01/20 08:00:15;;;;;;;33.95;19.30;;;2.00;1.00;;;;;;5033154;28;21206;-81
2023/01/20 08:02:56;;;;;;;37.95;19.08;;;2.00;1.00;;;;;;5038212;28;20242;-79
2023/01/20 08:05:25;;;;;;;34.20;19.33;;;2.00;1.00;;;;;;5032371;28;20971;-79
2023/01/20 08:07:56;;;;;;;31.92;18.48;;;2.00;1.00;;;;;;5034393;28;20334;-81
2023/01/20 08:10:27;;;;;;;31.17;20.17;;;2.10;1.00;;;;;;5029769;28;20264;-80
2023/01/20 08:12:58;;;;;;;33.55;18.92;;;2.10;1.00;;;;;;5035529;28;20225;-81
2023/01/20 08:15:25;;;;;;;34.50;19.42;;;2.10;1.00;;;;;;5036292;28;20396;-81
2023/01/20 08:17:59;;;;;;;36.53;23.48;;;2.00;1.00;;;;;;5032804;28;20245;-80
2023/01/20 08:20:28;;;;;;;34.65;19.92;;;2.00;1.00;;;;;;5031375;28;20245;-80
2023/01/20 08:23:01;;;;;;;35.38;20.23;;;2.00;1.00;;;;;;5027326;28;20260;-80
2023/01/20 08:25:40;;;;;;;33.60;19.92;;;2.00;1.00;;;;;;5029403;28;20297;-81
2023/01/20 08:28:10;;;;;;;35.83;20.88;;;2.00;1.00;;;;;;5027800;28;20241;-80
2023/01/20 08:30:39;;;;;;;35.95;20.85;;;2.10;1.00;;;;;;5013583;28;20331;-80
2023/01/20 08:33:09;;;;;;;40.20;22.85;;;2.10;1.00;;;;;;5023269;28;20990;-85
2023/01/20 08:35:40;;;;;;;35.92;20.48;;;2.20;1.00;;;;;;5024876;28;20365;-80
2023/01/20 08:38:29;;;;;;;41.47;20.45;;;2.20;1.00;;;;;;5024255;28;20241;-83
2023/01/20 08:40:58;;;;;;;37.20;21.73;;;2.30;1.00;;;;;;5024927;28;20270;-79
2023/01/20 08:43:29;;;;;;;34.03;19.65;;;2.30;1.00;;;;;;5026727;28;20705;-81
2023/01/20 08:45:59;;;;;;;34.63;21.88;;;2.30;1.00;;;;;;5009788;28;20235;-80
2023/01/20 08:48:26;;;;;;;37.65;21.23;;;2.30;1.00;;;;;;5013312;28;20271;-82
2023/01/20 08:51:22;;;;;;;49.70;27.98;;;2.40;1.00;;;;;;5018562;28;20239;-81
2023/01/20 08:53:50;;;;;;;40.75;22.08;;;2.40;1.00;;;;;;5011341;28;20216;-83
2023/01/20 08:56:21;;;;;;;31.40;19.73;;;2.50;1.00;;;;;;5014519;28;20242;-80
2023/01/20 08:58:50;;;;;;;32.47;19.65;;;2.60;1.00;;;;;;5010967;28;20241;-78
2023/01/20 09:01:22;;;;;;;32.38;20.45;;;2.50;1.00;;;;;;5011210;28;21008;-82
2023/01/20 09:03:50;;;;;;;38.92;20.75;;;2.50;1.00;;;;;;5010131;28;20238;-79
2023/01/20 09:06:20;;;;;;;40.22;23.17;;;2.50;1.00;;;;;;5011697;28;20234;-80
2023/01/20 09:08:50;;;;;;;34.08;21.42;;;2.50;1.00;;;;;;4998165;28;20239;-82
2023/01/20 09:11:19;;;;;;;39.13;23.38;;;2.50;1.00;;;;;;5029955;28;20238;-79
2023/01/20 09:13:49;;;;;;;38.55;21.10;;;2.50;1.00;;;;;;4983171;28;21028;-81
2023/01/20 09:16:18;;;;;;;40.72;22.55;;;2.50;1.00;;;;;;5007378;28;20235;-81
2023/01/20 09:18:56;;;;;;;37.20;22.27;;;2.60;1.00;;;;;;5010159;28;20235;-80
2023/01/20 09:21:36;;;;;;;41.20;21.25;;;2.60;1.00;;;;;;5018668;28;20328;-81
2023/01/20 09:24:12;;;;;;;35.53;21.25;;;2.60;1.00;;;;;;5004214;28;20303;-82
2023/01/20 09:30:18;;;;;;;37.03;21.83;;;2.60;1.00;;;;;;4976110;28;20245;-82
2023/01/20 09:32:51;;;;;;;36.35;21.38;;;2.50;1.00;;;;;;4997721;28;20276;-84
2023/01/20 09:35:20;;;;;;;40.22;22.25;;;2.50;1.00;;;;;;5001429;28;20242;-83
2023/01/20 09:44:23;;;;;;;38.90;20.92;;;2.60;1.00;;;;;;5027318;28;20226;-79
2023/01/20 09:47:19;;;;;;;36.42;20.70;;;2.60;1.00;;;;;;5030229;28;20292;-80
2023/01/20 09:53:14;;;;;;;36.72;22.27;;;2.70;1.00;;;;;;5011616;28;20233;-83
2023/01/20 09:55:56;;;;;;;40.42;23.77;;;2.80;1.00;;;;;;5047323;28;20244;-82
2023/01/20 09:58:50;;;;;;;46.63;24.50;;;2.80;1.00;;;;;;5049715;28;20256;-83
2023/01/20 10:04:58;;;;;;;40.88;22.38;;;2.80;1.00;;;;;;5036887;28;20278;-82
2023/01/20 10:07:50;;;;;;;45.03;25.20;;;2.80;1.00;;;;;;5062550;28;20238;-83
2023/01/20 10:10:32;;;;;;;39.03;25.67;;;2.70;1.00;;;;;;5055708;28;20315;-83
2023/01/20 10:13:21;;;;;;;45.10;26.50;;;2.80;1.00;;;;;;5046913;28;20253;-83
2023/01/20 10:16:11;;;;;;;;;;;;;;;;;;;;;
2023/01/20 10:18:57;;;;;;;41.58;24.55;;;2.90;1.00;;;;;;5050622;28;39766;-84
2023/01/20 10:25:10;;;;;;;40.13;23.08;;;3.00;1.00;;;;;;5035866;28;20362;-84
2023/01/20 10:27:58;;;;;;;40.10;24.75;;;3.10;1.00;;;;;;5055368;28;20257;-85
2023/01/20 10:30:49;;;;;;;40.28;24.30;;;3.10;1.00;;;;;;5061476;28;21711;-86
2023/01/20 10:33:30;;;;;;;32.53;21.33;;;3.20;1.00;;;;;;5041968;28;20243;-86
2023/01/20 10:36:19;;;;;;;36.63;21.85;;;3.20;1.00;;;;;;5045104;28;20238;-85
2023/01/20 10:38:58;;;;;;;36.97;21.30;;;3.20;1.00;;;;;;5037334;28;20340;-84
2023/01/20 10:41:53;;;;;;;36.38;21.25;;;3.20;1.00;;;;;;5061151;28;20238;-83
2023/01/20 10:44:40;;;;;;;38.22;24.48;;;3.30;1.00;;;;;;5039964;28;20339;-87
2023/01/20 10:47:37;;;;;;;41.03;24.20;;;3.30;1.00;;;;;;5057463;28;20283;-88
2023/01/20 11:01:20;;;;;;;38.80;25.67;;;3.50;1.00;;;;;;5458308;22;20974;-86
2023/01/20 11:03:57;;;;;;;45.67;26.40;;;3.50;1.00;;;;;;5101830;27;20227;-88
2023/01/20 11:07:07;;;;;;;41.90;24.65;;;3.60;1.00;;;;;;5117028;27;20313;-87
2023/01/20 11:09:47;;;;;;;42.83;25.05;;;3.60;1.00;;;;;;5132504;27;20988;-87
2023/01/20 11:12:40;;;;;;;49.40;26.25;;;3.60;1.00;;;;;;5123268;27;20656;-85
2023/01/20 11:15:29;;;;;;;38.28;23.52;;;3.60;1.00;;;;;;5088694;27;20243;-86
2023/01/20 11:18:34;;;;;;;39.72;24.65;;;3.60;1.00;;;;;;5103571;27;20219;-85
2023/01/20 11:21:29;;;;;;;38.40;22.65;;;3.60;1.00;;;;;;5102825;27;21067;-84
2023/01/20 11:26:50;;;;;;;43.35;25.40;;;3.60;1.00;;;;;;5052911;28;20338;-80
2023/01/20 11:29:51;;;;;;;45.33;25.45;;;3.50;1.00;;;;;;5067357;28;20220;-84
2023/01/20 11:32:39;;;;;;;42.70;25.83;;;3.60;1.00;;;;;;5046836;28;20254;-82
2023/01/20 11:35:23;;;;;;;39.85;25.25;;;3.70;1.00;;;;;;5108101;27;20241;-81
2023/01/20 11:37:50;;;;;;;38.83;23.70;;;3.80;1.00;;;;;;5113005;27;20234;-84
2023/01/20 11:40:28;;;;;;;40.15;23.60;;;3.90;1.00;;;;;;5127902;27;20242;-82
2023/01/20 11:43:01;;;;;;;44.15;24.83;;;4.00;1.00;;;;;;5107811;27;20650;-81
2023/01/20 11:45:33;;;;;;;36.28;24.80;;;4.10;1.00;;;;;;5104020;27;20274;-82
2023/01/20 11:48:12;;;;;;;45.70;25.75;;;4.10;1.00;;;;;;5120381;27;20238;-81
2023/01/20 11:50:51;;;;;;;34.50;23.08;;;4.10;1.00;;;;;;5104445;27;20285;-86
2023/01/20 11:53:30;;;;;;;40.15;25.23;;;4.00;1.00;;;;;;5100618;27;21101;-83
2023/01/20 11:59:08;;;;;;;39.20;21.95;;;4.00;1.00;;;;;;5077068;27;20218;-83
2023/01/20 12:01:51;;;;;;;40.35;23.92;;;4.00;1.00;;;;;;5109072;27;20227;-84
2023/01/20 12:04:53;;;;;;;51.28;25.90;;;4.00;1.00;;;;;;5125007;27;20234;-84
2023/01/20 12:07:40;;;;;;;42.40;24.65;;;4.00;1.00;;;;;;5117476;27;20304;-86
2023/01/20 12:10:29;;;;;;;36.63;21.88;;;4.10;1.00;;;;;;5118571;27;20247;-85
2023/01/20 12:13:08;;;;;;;38.22;23.42;;;4.10;1.00;;;;;;5131716;27;20713;-85
2023/01/20 12:16:00;;;;;;;39.45;24.15;;;4.10;1.00;;;;;;5057567;27;20664;-86
2023/01/20 12:18:58;;;;;;;36.17;23.33;;;4.20;1.00;;;;;;5072092;28;20324;-86
2023/01/20 12:21:39;;;;;;;38.40;23.67;;;4.10;1.00;;;;;;5102417;27;20242;-85
2023/01/20 12:25:06;;;;;;;36.60;24.13;;;4.10;1.00;;;;;;5135401;27;20238;-86
2023/01/20 12:27:51;;;;;;;42.10;25.83;;;3.90;1.00;;;;;;5114043;27;20281;-86
2023/01/20 12:33:31;;;;;;;45.28;25.35;;;3.90;1.00;;;;;;5083807;27;20380;-81
2023/01/20 12:36:48;;;;;;;48.15;28.20;;;3.80;1.00;;;;;;5093021;27;20243;-83
2023/01/20 12:39:35;;;;;;;39.85;24.83;;;3.80;1.00;;;;;;5129358;27;20238;-82
2023/01/20 12:42:28;;;;;;;48.30;28.15;;;3.80;1.00;;;;;;5140165;27;20235;-82
2023/01/20 12:44:58;;;;;;;40.72;24.40;;;3.90;1.00;;;;;;5126019;27;21115;-83
2023/01/20 12:47:48;;;;;;;41.65;24.75;;;3.90;1.00;;;;;;5103671;27;20251;-82
2023/01/20 12:50:30;;;;;;;35.72;23.33;;;3.90;1.00;;;;;;5132908;27;20261;-82
2023/01/20 12:53:22;;;;;;;39.85;25.33;;;3.90;1.00;;;;;;5136426;27;20256;-83
2023/01/20 12:56:02;;;;;;;38.78;24.58;;;3.90;1.00;;;;;;5133489;27;20235;-82
2023/01/20 12:58:43;;;;;;;44.30;25.63;;;3.90;1.00;;;;;;5117811;27;21013;-82
2023/01/20 13:01:45;;;;;;;40.03;26.27;;;3.90;1.00;;;;;;5114645;27;20269;-82
2023/01/20 13:04:46;;;;;;;41.88;26.60;;;4.10;1.00;;;;;;5117819;27;20243;-82
2023/01/20 13:07:58;;;;;;;40.75;25.23;;;4.10;1.00;;;;;;5044670;27;20267;-82
2023/01/20 13:10:46;;;;;;;44.35;27.08;;;4.10;1.00;;;;;;5034481;28;20236;-81
2023/01/20 13:13:36;;;;;;;37.97;23.38;;;4.10;1.00;;;;;;5118984;27;20227;-82
2023/01/20 13:16:10;;;;;;;43.03;25.35;;;4.10;1.00;;;;;;5121540;28;20301;-83
2023/01/20 13:19:02;;;;;;;44.05;27.70;;;4.10;1.00;;;;;;5093014;27;21123;-82
2023/01/20 13:21:31;;;;;;;40.95;25.50;;;4.10;1.00;;;;;;5117615;27;20288;-82
2023/01/20 13:24:05;;;;;;;41.00;25.00;;;4.10;1.00;;;;;;5120423;27;20235;-83
2023/01/20 13:26:35;;;;;;;36.03;23.25;;;3.90;1.00;;;;;;5115507;27;20245;-82
2023/01/20 13:29:04;;;;;;;47.50;26.45;;;3.80;1.00;;;;;;5118076;27;20322;-81
2023/01/20 13:31:42;;;;;;;49.55;28.10;;;3.90;1.00;;;;;;5113541;27;20234;-82
2023/01/20 13:34:31;;;;;;;43.22;25.95;;;3.90;1.00;;;;;;5123970;27;20361;-83
2023/01/20 13:37:35;;;;;;;45.38;25.40;;;4.00;1.00;;;;;;5115551;27;20224;-82
2023/01/20 13:40:03;;;;;;;43.97;25.90;;;4.00;1.00;;;;;;5118906;27;21065;-82
2023/01/20 13:43:00;;;;;;;47.20;26.23;;;4.00;1.00;;;;;;5116946;28;20258;-83
2023/01/20 13:45:47;;;;;;;49.33;26.00;;;4.00;1.00;;;;;;5098227;27;20251;-82
2023/01/20 13:48:23;;;;;;;45.22;27.27;;;4.00;1.00;;;;;;5086784;27;20305;-82
2023/01/20 13:50:52;;;;;;;46.13;26.50;;;4.00;1.00;;;;;;5106914;27;20235;-83
2023/01/20 13:53:28;;;;;;;45.40;26.27;;;4.10;1.00;;;;;;5092567;27;20235;-83
2023/01/20 13:56:06;;;;;;;46.65;25.70;;;4.20;1.00;;;;;;5115027;27;20334;-82
2023/01/20 13:58:44;;;;;;;42.22;26.25;;;4.20;1.00;;;;;;5117656;27;20298;-82
2023/01/20 14:01:17;;;;;;;57.55;26.38;;;4.10;1.00;;;;;;5124735;27;20317;-83
2023/01/20 14:04:07;;;;;;;41.20;26.77;;;4.10;1.00;;;;;;5133962;27;20230;-82
2023/01/20 14:07:03;;;;;;;42.97;25.30;;;4.20;1.00;;;;;;5127701;27;20262;-82
2023/01/20 14:09:30;;;;;;;44.60;24.85;;;4.20;1.00;;;;;;5110663;27;20226;-83
2023/01/20 14:12:01;;;;;;;53.83;27.40;;;4.20;1.00;;;;;;5136293;27;20230;-83
2023/01/20 14:14:28;;;;;;;43.22;27.27;;;4.10;1.00;;;;;;5125179;27;20296;-83
2023/01/20 14:17:24;;;;;;;41.88;27.00;;;4.10;1.00;;;;;;5109561;27;20281;-83
2023/01/20 14:19:53;;;;;;;45.17;25.30;;;4.00;1.00;;;;;;5107287;27;20236;-82
2023/01/20 14:22:34;;;;;;;44.47;26.58;;;3.90;1.00;;;;;;5101207;27;20262;-82
2023/01/20 14:25:02;;;;;;;46.30;27.52;;;3.90;1.00;;;;;;5117221;27;20234;-83
2023/01/20 14:27:34;;;;;;;44.58;26.65;;;3.80;1.00;;;;;;5107658;27;20242;-83
2023/01/20 14:30:19;;;;;;;41.67;26.27;;;3.90;1.00;;;;;;5111123;27;20267;-83
2023/01/20 14:32:59;;;;;;;46.05;26.80;;;3.90;1.00;;;;;;5102235;27;21119;-84
2023/01/20 14:35:34;;;;;;;43.97;25.60;;;3.90;1.00;;;;;;5112789;27;20246;-82
2023/01/20 14:38:02;;;;;;;43.88;27.85;;;4.00;1.00;;;;;;5108897;27;20268;-83
2023/01/20 14:40:30;;;;;;;43.92;25.00;;;4.00;1.00;;;;;;5130534;27;20260;-80
2023/01/20 14:42:59;;;;;;;40.42;25.00;;;4.00;1.00;;;;;;5144905;27;20238;-83
2023/01/20 14:45:42;;;;;;;39.47;26.42;;;4.00;1.00;;;;;;5113438;27;20265;-82
2023/01/20 14:48:12;;;;;;;45.03;25.75;;;3.90;1.00;;;;;;5130582;27;20239;-83
2023/01/20 14:50:43;;;;;;;43.05;26.13;;;3.90;1.00;;;;;;5117581;27;20574;-84
2023/01/20 14:53:18;;;;;;;49.20;26.80;;;3.90;1.00;;;;;;5115336;27;20234;-84
2023/01/20 14:56:02;;;;;;;46.58;25.60;;;3.90;1.00;;;;;;5140451;27;20361;-84
2023/01/20 15:01:29;;;;;;;43.63;25.17;;;4.00;1.00;;;;;;5085207;27;20283;-82
2023/01/20 17:03:55;;;;;;;41.45;23.58;;;2.70;1.00;;;;;;4964361;22;20251;-83
2023/01/20 17:06:32;;;;;;;43.58;25.20;;;2.70;1.00;;;;;;5110017;22;20283;-85
2023/01/20 17:09:02;;;;;;;46.42;24.15;;;2.70;1.00;;;;;;5085922;27;20239;-80
2023/01/20 17:11:31;;;;;;;39.95;24.75;;;2.70;1.00;;;;;;5116241;27;20235;-84
2023/01/20 17:14:02;;;;;;;45.08;24.92;;;2.70;1.00;;;;;;5101313;27;20257;-84
2023/01/20 17:16:31;;;;;;;44.40;26.25;;;2.70;1.00;;;;;;5102001;28;20300;-85